sensor_id;sensor_type;location;lat;lon;timestamp;P1;durP1;ratioP1;P2;durP2;ratioP2
15480;SDS011;7842;50.904;6.670;2023-04-25T00:01:21;10.85;;;4.95;;
15480;SDS011;7842;50.904;6.670;2023-04-25T00:03:47;10.20;;;4.80;;
15480;SDS011;7842;50.904;6.670;2023-04-25T00:06:13;11.48;;;4.80;;
15480;SDS011;7842;50.904;6.670;2023-04-25T00:08:40;11.93;;;5.18;;
15480;SDS011;7842;50.904;6.670;2023-04-25T00:11:05;10.65;;;5.07;;
15480;SDS011;7842;50.904;6.670;2023-04-25T00:13:31;11.52;;;5.22;;
15480;SDS011;7842;50.904;6.670;2023-04-25T00:15:58;11.30;;;4.97;;
15480;SDS011;7842;50.904;6.670;2023-04-25T00:18:25;9.98;;;4.57;;
15480;SDS011;7842;50.904;6.670;2023-04-25T00:20:54;12.63;;;5.63;;
15480;SDS011;7842;50.904;6.670;2023-04-25T00:23:20;12.07;;;5.20;;
15480;SDS011;7842;50.904;6.670;2023-04-25T00:25:49;11.10;;;5.80;;
15480;SDS011;7842;50.904;6.670;2023-04-25T00:28:15;11.80;;;5.30;;
15480;SDS011;7842;50.904;6.670;2023-04-25T00:30:42;12.30;;;5.10;;
15480;SDS011;7842;50.904;6.670;2023-04-25T00:33:08;10.13;;;5.35;;
15480;SDS011;7842;50.904;6.670;2023-04-25T00:35:34;12.73;;;5.43;;
15480;SDS011;7842;50.904;6.670;2023-04-25T00:37:59;11.77;;;5.43;;
15480;SDS011;7842;50.904;6.670;2023-04-25T00:40:25;8.87;;;5.10;;
15480;SDS011;7842;50.904;6.670;2023-04-25T00:42:54;11.35;;;5.35;;
15480;SDS011;7842;50.904;6.670;2023-04-25T00:45:22;11.63;;;4.82;;
15480;SDS011;7842;50.904;6.670;2023-04-25T00:47:53;9.93;;;5.40;;
15480;SDS011;7842;50.904;6.670;2023-04-25T00:50:19;12.15;;;5.70;;
15480;SDS011;7842;50.904;6.670;2023-04-25T00:52:45;10.33;;;5.13;;
15480;SDS011;7842;50.904;6.670;2023-04-25T00:55:11;12.73;;;4.90;;
15480;SDS011;7842;50.904;6.670;2023-04-25T00:57:38;11.45;;;5.28;;
15480;SDS011;7842;50.904;6.670;2023-04-25T01:00:05;10.52;;;5.70;;
15480;SDS011;7842;50.904;6.670;2023-04-25T01:02:32;10.98;;;5.35;;
15480;SDS011;7842;50.904;6.670;2023-04-25T01:04:58;13.02;;;5.47;;
15480;SDS011;7842;50.904;6.670;2023-04-25T01:07:24;12.32;;;6.00;;
15480;SDS011;7842;50.904;6.670;2023-04-25T01:09:51;12.90;;;5.80;;
15480;SDS011;7842;50.904;6.670;2023-04-25T01:12:17;13.55;;;5.70;;
15480;SDS011;7842;50.904;6.670;2023-04-25T01:14:43;13.17;;;5.50;;
15480;SDS011;7842;50.904;6.670;2023-04-25T01:17:09;12.00;;;5.40;;
15480;SDS011;7842;50.904;6.670;2023-04-25T01:19:35;11.57;;;5.38;;
15480;SDS011;7842;50.904;6.670;2023-04-25T01:22:01;12.57;;;5.65;;
15480;SDS011;7842;50.904;6.670;2023-04-25T01:24:28;11.93;;;5.60;;
15480;SDS011;7842;50.904;6.670;2023-04-25T01:26:55;12.18;;;5.82;;
15480;SDS011;7842;50.904;6.670;2023-04-25T01:29:22;12.57;;;5.20;;
15480;SDS011;7842;50.904;6.670;2023-04-25T01:31:48;9.63;;;5.10;;
15480;SDS011;7842;50.904;6.670;2023-04-25T01:34:16;11.25;;;5.40;;
15480;SDS011;7842;50.904;6.670;2023-04-25T01:36:41;10.60;;;5.43;;
15480;SDS011;7842;50.904;6.670;2023-04-25T01:39:07;11.77;;;5.57;;
15480;SDS011;7842;50.904;6.670;2023-04-25T01:41:33;12.57;;;5.63;;
15480;SDS011;7842;50.904;6.670;2023-04-25T01:43:59;12.65;;;5.93;;
15480;SDS011;7842;50.904;6.670;2023-04-25T01:46:28;13.82;;;5.93;;
15480;SDS011;7842;50.904;6.670;2023-04-25T01:48:58;14.15;;;6.07;;
15480;SDS011;7842;50.904;6.670;2023-04-25T01:51:23;13.57;;;6.10;;
15480;SDS011;7842;50.904;6.670;2023-04-25T01:53:49;11.40;;;5.80;;
15480;SDS011;7842;50.904;6.670;2023-04-25T01:56:15;14.20;;;6.22;;
15480;SDS011;7842;50.904;6.670;2023-04-25T01:58:42;13.18;;;6.03;;
15480;SDS011;7842;50.904;6.670;2023-04-25T02:01:08;12.57;;;6.00;;
15480;SDS011;7842;50.904;6.670;2023-04-25T02:03:33;10.82;;;5.88;;
15480;SDS011;7842;50.904;6.670;2023-04-25T02:05:59;16.00;;;6.53;;
15480;SDS011;7842;50.904;6.670;2023-04-25T02:08:25;15.93;;;6.05;;
15480;SDS011;7842;50.904;6.670;2023-04-25T02:10:51;12.45;;;5.88;;
15480;SDS011;7842;50.904;6.670;2023-04-25T02:13:17;13.63;;;6.50;;
15480;SDS011;7842;50.904;6.670;2023-04-25T02:15:43;13.53;;;6.57;;
15480;SDS011;7842;50.904;6.670;2023-04-25T02:18:08;12.97;;;6.50;;
15480;SDS011;7842;50.904;6.670;2023-04-25T02:20:35;12.25;;;6.43;;
15480;SDS011;7842;50.904;6.670;2023-04-25T02:23:01;13.00;;;6.22;;
15480;SDS011;7842;50.904;6.670;2023-04-25T02:25:27;13.13;;;6.60;;
15480;SDS011;7842;50.904;6.670;2023-04-25T02:27:53;12.50;;;6.10;;
15480;SDS011;7842;50.904;6.670;2023-04-25T02:30:18;12.53;;;6.30;;
15480;SDS011;7842;50.904;6.670;2023-04-25T02:32:44;13.93;;;6.40;;
15480;SDS011;7842;50.904;6.670;2023-04-25T02:35:10;12.07;;;6.27;;
15480;SDS011;7842;50.904;6.670;2023-04-25T02:37:36;10.57;;;6.07;;
15480;SDS011;7842;50.904;6.670;2023-04-25T02:40:03;11.60;;;6.30;;
15480;SDS011;7842;50.904;6.670;2023-04-25T02:42:29;13.57;;;6.50;;
15480;SDS011;7842;50.904;6.670;2023-04-25T02:44:55;13.53;;;6.37;;
15480;SDS011;7842;50.904;6.670;2023-04-25T02:47:21;14.35;;;6.47;;
15480;SDS011;7842;50.904;6.670;2023-04-25T02:49:47;10.80;;;6.00;;
15480;SDS011;7842;50.904;6.670;2023-04-25T02:52:13;12.70;;;6.35;;
15480;SDS011;7842;50.904;6.670;2023-04-25T02:54:39;11.02;;;6.38;;
15480;SDS011;7842;50.904;6.670;2023-04-25T02:57:06;15.05;;;6.80;;
15480;SDS011;7842;50.904;6.670;2023-04-25T02:59:32;14.18;;;7.25;;
15480;SDS011;7842;50.904;6.670;2023-04-25T03:01:58;13.80;;;7.30;;
15480;SDS011;7842;50.904;6.670;2023-04-25T03:04:24;13.98;;;7.10;;
15480;SDS011;7842;50.904;6.670;2023-04-25T03:06:50;13.55;;;6.95;;
15480;SDS011;7842;50.904;6.670;2023-04-25T03:09:18;13.50;;;7.40;;
15480;SDS011;7842;50.904;6.670;2023-04-25T03:11:44;13.65;;;7.40;;
15480;SDS011;7842;50.904;6.670;2023-04-25T03:14:10;13.35;;;7.75;;
15480;SDS011;7842;50.904;6.670;2023-04-25T03:16:36;13.95;;;7.65;;
15480;SDS011;7842;50.904;6.670;2023-04-25T03:19:05;15.88;;;7.40;;
15480;SDS011;7842;50.904;6.670;2023-04-25T03:21:32;15.27;;;7.87;;
15480;SDS011;7842;50.904;6.670;2023-04-25T03:23:58;14.82;;;7.82;;
15480;SDS011;7842;50.904;6.670;2023-04-25T03:26:25;13.43;;;7.47;;
15480;SDS011;7842;50.904;6.670;2023-04-25T03:28:51;17.00;;;7.63;;
15480;SDS011;7842;50.904;6.670;2023-04-25T03:31:16;16.37;;;7.57;;
15480;SDS011;7842;50.904;6.670;2023-04-25T03:33:42;15.63;;;7.68;;
15480;SDS011;7842;50.904;6.670;2023-04-25T03:36:07;15.50;;;7.88;;
15480;SDS011;7842;50.904;6.670;2023-04-25T03:38:33;13.40;;;7.88;;
15480;SDS011;7842;50.904;6.670;2023-04-25T03:40:59;15.13;;;8.05;;
15480;SDS011;7842;50.904;6.670;2023-04-25T03:43:25;12.52;;;7.43;;
15480;SDS011;7842;50.904;6.670;2023-04-25T03:45:51;15.97;;;7.90;;
15480;SDS011;7842;50.904;6.670;2023-04-25T03:48:16;12.82;;;7.93;;
15480;SDS011;7842;50.904;6.670;2023-04-25T03:50:42;15.07;;;7.82;;
15480;SDS011;7842;50.904;6.670;2023-04-25T03:53:07;15.93;;;7.85;;
15480;SDS011;7842;50.904;6.670;2023-04-25T03:55:33;14.63;;;7.77;;
15480;SDS011;7842;50.904;6.670;2023-04-25T03:57:59;13.37;;;7.50;;
15480;SDS011;7842;50.904;6.670;2023-04-25T04:00:25;13.23;;;7.57;;
15480;SDS011;7842;50.904;6.670;2023-04-25T04:02:50;12.63;;;7.40;;
15480;SDS011;7842;50.904;6.670;2023-04-25T04:05:16;15.27;;;7.40;;
15480;SDS011;7842;50.904;6.670;2023-04-25T04:07:42;14.23;;;7.60;;
15480;SDS011;7842;50.904;6.670;2023-04-25T04:10:10;12.20;;;7.33;;
15480;SDS011;7842;50.904;6.670;2023-04-25T04:12:36;16.35;;;7.82;;
15480;SDS011;7842;50.904;6.670;2023-04-25T04:15:05;14.30;;;7.25;;
15480;SDS011;7842;50.904;6.670;2023-04-25T04:17:31;15.95;;;7.55;;
15480;SDS011;7842;50.904;6.670;2023-04-25T04:19:58;16.57;;;7.70;;
15480;SDS011;7842;50.904;6.670;2023-04-25T04:22:23;14.07;;;7.43;;
15480;SDS011;7842;50.904;6.670;2023-04-25T04:24:49;12.60;;;7.50;;
15480;SDS011;7842;50.904;6.670;2023-04-25T04:27:16;14.68;;;7.10;;
15480;SDS011;7842;50.904;6.670;2023-04-25T04:29:43;14.52;;;7.43;;
15480;SDS011;7842;50.904;6.670;2023-04-25T04:32:08;15.73;;;7.70;;
15480;SDS011;7842;50.904;6.670;2023-04-25T04:34:34;13.13;;;6.67;;
15480;SDS011;7842;50.904;6.670;2023-04-25T04:37:00;15.77;;;7.00;;
15480;SDS011;7842;50.904;6.670;2023-04-25T04:39:26;16.35;;;7.65;;
15480;SDS011;7842;50.904;6.670;2023-04-25T04:41:52;15.82;;;7.47;;
15480;SDS011;7842;50.904;6.670;2023-04-25T04:44:18;15.23;;;7.50;;
15480;SDS011;7842;50.904;6.670;2023-04-25T04:46:44;16.80;;;8.10;;
15480;SDS011;7842;50.904;6.670;2023-04-25T04:49:09;18.07;;;8.03;;
15480;SDS011;7842;50.904;6.670;2023-04-25T04:51:36;15.05;;;7.70;;
15480;SDS011;7842;50.904;6.670;2023-04-25T04:54:02;15.50;;;7.72;;
15480;SDS011;7842;50.904;6.670;2023-04-25T04:56:28;14.95;;;7.50;;
15480;SDS011;7842;50.904;6.670;2023-04-25T04:58:56;13.65;;;7.85;;
15480;SDS011;7842;50.904;6.670;2023-04-25T05:01:22;15.45;;;7.60;;
15480;SDS011;7842;50.904;6.670;2023-04-25T05:03:48;14.30;;;7.75;;
15480;SDS011;7842;50.904;6.670;2023-04-25T05:06:14;16.02;;;7.50;;
15480;SDS011;7842;50.904;6.670;2023-04-25T05:08:41;16.25;;;7.50;;
15480;SDS011;7842;50.904;6.670;2023-04-25T05:11:07;13.35;;;7.40;;
15480;SDS011;7842;50.904;6.670;2023-04-25T05:13:36;15.18;;;7.07;;
15480;SDS011;7842;50.904;6.670;2023-04-25T05:16:01;14.05;;;7.15;;
15480;SDS011;7842;50.904;6.670;2023-04-25T05:18:27;14.00;;;7.05;;
15480;SDS011;7842;50.904;6.670;2023-04-25T05:20:55;16.40;;;7.10;;
15480;SDS011;7842;50.904;6.670;2023-04-25T05:23:21;15.25;;;6.82;;
15480;SDS011;7842;50.904;6.670;2023-04-25T05:25:48;15.73;;;6.65;;
15480;SDS011;7842;50.904;6.670;2023-04-25T05:28:14;17.33;;;7.13;;
15480;SDS011;7842;50.904;6.670;2023-04-25T05:30:41;13.20;;;6.75;;
15480;SDS011;7842;50.904;6.670;2023-04-25T05:33:08;13.60;;;7.05;;
15480;SDS011;7842;50.904;6.670;2023-04-25T05:35:34;14.98;;;6.82;;
15480;SDS011;7842;50.904;6.670;2023-04-25T05:38:00;11.52;;;6.50;;
15480;SDS011;7842;50.904;6.670;2023-04-25T05:40:28;14.32;;;6.80;;
15480;SDS011;7842;50.904;6.670;2023-04-25T05:42:55;17.40;;;7.00;;
15480;SDS011;7842;50.904;6.670;2023-04-25T05:45:22;15.23;;;7.27;;
15480;SDS011;7842;50.904;6.670;2023-04-25T05:47:50;13.25;;;6.82;;
15480;SDS011;7842;50.904;6.670;2023-04-25T05:50:16;13.67;;;6.73;;
15480;SDS011;7842;50.904;6.670;2023-04-25T05:52:41;13.60;;;6.50;;
15480;SDS011;7842;50.904;6.670;2023-04-25T05:55:07;14.57;;;6.70;;
15480;SDS011;7842;50.904;6.670;2023-04-25T05:57:33;12.50;;;6.63;;
15480;SDS011;7842;50.904;6.670;2023-04-25T05:59:59;15.47;;;6.70;;
15480;SDS011;7842;50.904;6.670;2023-04-25T06:02:24;18.37;;;7.23;;
15480;SDS011;7842;50.904;6.670;2023-04-25T06:04:51;14.35;;;6.70;;
15480;SDS011;7842;50.904;6.670;2023-04-25T06:07:17;15.15;;;6.43;;
15480;SDS011;7842;50.904;6.670;2023-04-25T06:09:46;12.88;;;6.25;;
15480;SDS011;7842;50.904;6.670;2023-04-25T06:12:12;12.75;;;6.40;;
15480;SDS011;7842;50.904;6.670;2023-04-25T06:14:38;15.97;;;6.57;;
15480;SDS011;7842;50.904;6.670;2023-04-25T06:17:03;15.00;;;6.97;;
15480;SDS011;7842;50.904;6.670;2023-04-25T06:19:33;13.60;;;6.90;;
15480;SDS011;7842;50.904;6.670;2023-04-25T06:22:00;12.17;;;6.03;;
15480;SDS011;7842;50.904;6.670;2023-04-25T06:24:26;11.30;;;5.60;;
15480;SDS011;7842;50.904;6.670;2023-04-25T06:26:52;12.98;;;6.03;;
15480;SDS011;7842;50.904;6.670;2023-04-25T06:29:18;13.73;;;5.68;;
15480;SDS011;7842;50.904;6.670;2023-04-25T06:31:44;14.45;;;6.07;;
15480;SDS011;7842;50.904;6.670;2023-04-25T06:34:10;12.27;;;5.82;;
15480;SDS011;7842;50.904;6.670;2023-04-25T06:36:36;14.02;;;5.72;;
15480;SDS011;7842;50.904;6.670;2023-04-25T06:39:02;11.80;;;5.75;;
15480;SDS011;7842;50.904;6.670;2023-04-25T06:41:28;13.50;;;5.80;;
15480;SDS011;7842;50.904;6.670;2023-04-25T06:43:55;13.70;;;5.90;;
15480;SDS011;7842;50.904;6.670;2023-04-25T06:46:23;13.98;;;5.68;;
15480;SDS011;7842;50.904;6.670;2023-04-25T06:48:51;13.73;;;5.40;;
15480;SDS011;7842;50.904;6.670;2023-04-25T06:51:20;11.88;;;5.40;;
15480;SDS011;7842;50.904;6.670;2023-04-25T06:53:47;13.95;;;5.22;;
15480;SDS011;7842;50.904;6.670;2023-04-25T06:56:14;12.98;;;5.32;;
15480;SDS011;7842;50.904;6.670;2023-04-25T06:58:43;13.77;;;5.65;;
15480;SDS011;7842;50.904;6.670;2023-04-25T07:01:11;13.73;;;5.50;;
15480;SDS011;7842;50.904;6.670;2023-04-25T07:03:40;12.57;;;5.57;;
15480;SDS011;7842;50.904;6.670;2023-04-25T07:06:09;15.57;;;6.00;;
15480;SDS011;7842;50.904;6.670;2023-04-25T07:08:36;12.73;;;5.60;;
15480;SDS011;7842;50.904;6.670;2023-04-25T07:11:05;12.23;;;5.10;;
15480;SDS011;7842;50.904;6.670;2023-04-25T07:13:36;10.95;;;4.90;;
15480;SDS011;7842;50.904;6.670;2023-04-25T07:16:04;12.63;;;5.32;;
15480;SDS011;7842;50.904;6.670;2023-04-25T07:18:32;11.02;;;5.05;;
15480;SDS011;7842;50.904;6.670;2023-04-25T07:21:01;13.20;;;4.85;;
15480;SDS011;7842;50.904;6.670;2023-04-25T07:23:30;10.90;;;4.55;;
15480;SDS011;7842;50.904;6.670;2023-04-25T07:25:58;11.50;;;4.47;;
15480;SDS011;7842;50.904;6.670;2023-04-25T07:28:26;9.18;;;4.10;;
15480;SDS011;7842;50.904;6.670;2023-04-25T07:30:54;11.23;;;4.22;;
15480;SDS011;7842;50.904;6.670;2023-04-25T07:33:20;10.75;;;4.68;;
15480;SDS011;7842;50.904;6.670;2023-04-25T07:35:49;12.47;;;4.63;;
15480;SDS011;7842;50.904;6.670;2023-04-25T07:38:17;11.18;;;3.95;;
15480;SDS011;7842;50.904;6.670;2023-04-25T07:40:43;12.43;;;4.13;;
15480;SDS011;7842;50.904;6.670;2023-04-25T07:43:10;8.67;;;4.03;;
15480;SDS011;7842;50.904;6.670;2023-04-25T07:45:39;10.20;;;4.38;;
15480;SDS011;7842;50.904;6.670;2023-04-25T07:48:05;9.05;;;3.70;;
15480;SDS011;7842;50.904;6.670;2023-04-25T07:50:31;10.20;;;3.90;;
15480;SDS011;7842;50.904;6.670;2023-04-25T07:52:57;8.50;;;4.03;;
15480;SDS011;7842;50.904;6.670;2023-04-25T07:55:24;9.60;;;3.42;;
15480;SDS011;7842;50.904;6.670;2023-04-25T07:57:51;10.18;;;4.25;;
15480;SDS011;7842;50.904;6.670;2023-04-25T08:00:20;11.30;;;3.65;;
15480;SDS011;7842;50.904;6.670;2023-04-25T08:02:50;11.98;;;4.03;;
15480;SDS011;7842;50.904;6.670;2023-04-25T08:05:18;10.60;;;3.83;;
15480;SDS011;7842;50.904;6.670;2023-04-25T08:07:44;10.40;;;3.80;;
15480;SDS011;7842;50.904;6.670;2023-04-25T08:10:10;10.95;;;4.03;;
15480;SDS011;7842;50.904;6.670;2023-04-25T08:12:36;9.77;;;4.00;;
15480;SDS011;7842;50.904;6.670;2023-04-25T08:15:02;8.68;;;3.95;;
15480;SDS011;7842;50.904;6.670;2023-04-25T08:17:28;10.82;;;4.00;;
15480;SDS011;7842;50.904;6.670;2023-04-25T08:19:54;8.43;;;3.45;;
15480;SDS011;7842;50.904;6.670;2023-04-25T08:22:21;8.77;;;3.15;;
15480;SDS011;7842;50.904;6.670;2023-04-25T08:24:47;10.45;;;3.40;;
15480;SDS011;7842;50.904;6.670;2023-04-25T08:27:13;9.75;;;3.58;;
15480;SDS011;7842;50.904;6.670;2023-04-25T08:29:39;8.73;;;3.30;;
15480;SDS011;7842;50.904;6.670;2023-04-25T08:32:05;7.25;;;3.40;;
15480;SDS011;7842;50.904;6.670;2023-04-25T08:34:31;8.48;;;3.13;;
15480;SDS011;7842;50.904;6.670;2023-04-25T08:36:57;9.75;;;3.53;;
15480;SDS011;7842;50.904;6.670;2023-04-25T08:39:23;11.85;;;3.58;;
15480;SDS011;7842;50.904;6.670;2023-04-25T08:41:49;11.88;;;3.53;;
15480;SDS011;7842;50.904;6.670;2023-04-25T08:44:17;7.57;;;3.25;;
15480;SDS011;7842;50.904;6.670;2023-04-25T08:46:43;6.37;;;2.80;;
15480;SDS011;7842;50.904;6.670;2023-04-25T08:49:13;6.85;;;3.08;;
15480;SDS011;7842;50.904;6.670;2023-04-25T08:51:43;7.63;;;2.80;;
15480;SDS011;7842;50.904;6.670;2023-04-25T08:54:12;9.38;;;2.70;;
15480;SDS011;7842;50.904;6.670;2023-04-25T08:56:38;7.95;;;2.53;;
15480;SDS011;7842;50.904;6.670;2023-04-25T08:59:07;5.72;;;2.50;;
15480;SDS011;7842;50.904;6.670;2023-04-25T09:01:34;8.20;;;2.40;;
15480;SDS011;7842;50.904;6.670;2023-04-25T09:04:03;8.73;;;2.63;;
15480;SDS011;7842;50.904;6.670;2023-04-25T09:06:29;6.22;;;2.50;;
15480;SDS011;7842;50.904;6.670;2023-04-25T09:09:01;6.40;;;2.47;;
15480;SDS011;7842;50.904;6.670;2023-04-25T09:11:28;7.20;;;3.13;;
15480;SDS011;7842;50.904;6.670;2023-04-25T09:14:09;8.90;;;2.93;;
15480;SDS011;7842;50.904;6.670;2023-04-25T09:16:35;8.40;;;3.15;;
15480;SDS011;7842;50.904;6.670;2023-04-25T09:19:26;7.10;;;2.97;;
15480;SDS011;7842;50.904;6.670;2023-04-25T09:21:56;9.23;;;3.20;;
15480;SDS011;7842;50.904;6.670;2023-04-25T09:24:38;7.78;;;3.10;;
15480;SDS011;7842;50.904;6.670;2023-04-25T09:27:09;8.57;;;3.08;;
15480;SDS011;7842;50.904;6.670;2023-04-25T09:29:37;5.75;;;2.72;;
15480;SDS011;7842;50.904;6.670;2023-04-25T09:34:48;7.57;;;2.90;;
15480;SDS011;7842;50.904;6.670;2023-04-25T09:37:27;9.55;;;3.38;;
15480;SDS011;7842;50.904;6.670;2023-04-25T09:39:55;6.77;;;3.10;;
15480;SDS011;7842;50.904;6.670;2023-04-25T09:42:27;9.93;;;3.43;;
15480;SDS011;7842;50.904;6.670;2023-04-25T09:44:55;7.80;;;3.38;;
15480;SDS011;7842;50.904;6.670;2023-04-25T09:47:22;8.30;;;3.38;;
15480;SDS011;7842;50.904;6.670;2023-04-25T09:49:50;7.93;;;3.22;;
15480;SDS011;7842;50.904;6.670;2023-04-25T09:52:17;7.75;;;3.65;;
15480;SDS011;7842;50.904;6.670;2023-04-25T09:54:45;10.35;;;3.88;;
15480;SDS011;7842;50.904;6.670;2023-04-25T09:57:21;7.57;;;3.33;;
15480;SDS011;7842;50.904;6.670;2023-04-25T09:59:52;8.82;;;3.40;;
15480;SDS011;7842;50.904;6.670;2023-04-25T10:02:19;9.02;;;3.30;;
15480;SDS011;7842;50.904;6.670;2023-04-25T10:04:49;6.35;;;2.90;;
15480;SDS011;7842;50.904;6.670;2023-04-25T10:07:17;9.85;;;3.40;;
15480;SDS011;7842;50.904;6.670;2023-04-25T10:10:05;9.65;;;3.10;;
15480;SDS011;7842;50.904;6.670;2023-04-25T10:12:30;8.48;;;3.25;;
15480;SDS011;7842;50.904;6.670;2023-04-25T10:14:58;5.63;;;2.70;;
15480;SDS011;7842;50.904;6.670;2023-04-25T10:17:25;7.43;;;3.03;;
15480;SDS011;7842;50.904;6.670;2023-04-25T10:19:55;8.05;;;3.10;;
15480;SDS011;7842;50.904;6.670;2023-04-25T10:24:53;6.95;;;2.83;;
15480;SDS011;7842;50.904;6.670;2023-04-25T10:27:21;7.10;;;2.90;;
15480;SDS011;7842;50.904;6.670;2023-04-25T10:30:00;8.32;;;2.95;;
15480;SDS011;7842;50.904;6.670;2023-04-25T10:32:27;8.82;;;3.03;;
15480;SDS011;7842;50.904;6.670;2023-04-25T10:34:53;6.35;;;2.90;;
15480;SDS011;7842;50.904;6.670;2023-04-25T10:37:19;6.30;;;2.53;;
15480;SDS011;7842;50.904;6.670;2023-04-25T10:39:45;8.90;;;2.95;;
15480;SDS011;7842;50.904;6.670;2023-04-25T10:42:11;6.05;;;2.70;;
15480;SDS011;7842;50.904;6.670;2023-04-25T10:44:37;6.65;;;2.67;;
15480;SDS011;7842;50.904;6.670;2023-04-25T10:47:07;8.60;;;3.20;;
15480;SDS011;7842;50.904;6.670;2023-04-25T10:49:35;7.18;;;3.20;;
15480;SDS011;7842;50.904;6.670;2023-04-25T10:54:54;6.38;;;3.15;;
15480;SDS011;7842;50.904;6.670;2023-04-25T11:00:15;7.25;;;3.03;;
15480;SDS011;7842;50.904;6.670;2023-04-25T11:05:33;5.30;;;2.83;;
15480;SDS011;7842;50.904;6.670;2023-04-25T11:08:00;6.88;;;2.67;;
15480;SDS011;7842;50.904;6.670;2023-04-25T11:10:27;9.90;;;2.85;;
15480;SDS011;7842;50.904;6.670;2023-04-25T11:12:54;5.73;;;2.80;;
15480;SDS011;7842;50.904;6.670;2023-04-25T11:15:20;9.10;;;3.30;;
15480;SDS011;7842;50.904;6.670;2023-04-25T11:17:46;7.28;;;2.85;;
15480;SDS011;7842;50.904;6.670;2023-04-25T11:20:12;6.80;;;3.00;;
15480;SDS011;7842;50.904;6.670;2023-04-25T11:22:40;7.13;;;2.83;;
15480;SDS011;7842;50.904;6.670;2023-04-25T11:25:09;7.88;;;2.97;;
15480;SDS011;7842;50.904;6.670;2023-04-25T11:27:55;7.10;;;2.92;;
15480;SDS011;7842;50.904;6.670;2023-04-25T11:30:27;6.10;;;2.78;;
15480;SDS011;7842;50.904;6.670;2023-04-25T11:32:58;7.00;;;2.92;;
15480;SDS011;7842;50.904;6.670;2023-04-25T11:35:24;7.40;;;3.10;;
15480;SDS011;7842;50.904;6.670;2023-04-25T11:37:58;8.68;;;3.58;;
15480;SDS011;7842;50.904;6.670;2023-04-25T11:40:25;8.02;;;3.45;;
15480;SDS011;7842;50.904;6.670;2023-04-25T11:42:51;7.40;;;2.35;;
15480;SDS011;7842;50.904;6.670;2023-04-25T11:45:17;6.43;;;2.47;;
15480;SDS011;7842;50.904;6.670;2023-04-25T11:47:49;6.43;;;2.67;;
15480;SDS011;7842;50.904;6.670;2023-04-25T11:50:25;6.22;;;3.00;;
15480;SDS011;7842;50.904;6.670;2023-04-25T11:52:55;5.43;;;2.70;;
15480;SDS011;7842;50.904;6.670;2023-04-25T11:55:22;6.60;;;2.72;;
15480;SDS011;7842;50.904;6.670;2023-04-25T11:57:48;6.85;;;2.88;;
15480;SDS011;7842;50.904;6.670;2023-04-25T12:00:20;6.80;;;2.92;;
15480;SDS011;7842;50.904;6.670;2023-04-25T12:02:50;5.20;;;2.95;;
15480;SDS011;7842;50.904;6.670;2023-04-25T12:05:16;5.43;;;2.70;;
15480;SDS011;7842;50.904;6.670;2023-04-25T12:07:42;5.75;;;2.70;;
15480;SDS011;7842;50.904;6.670;2023-04-25T12:10:13;5.03;;;2.70;;
15480;SDS011;7842;50.904;6.670;2023-04-25T12:12:44;6.28;;;2.70;;
15480;SDS011;7842;50.904;6.670;2023-04-25T12:15:11;5.63;;;3.00;;
15480;SDS011;7842;50.904;6.670;2023-04-25T12:17:39;5.43;;;2.83;;
15480;SDS011;7842;50.904;6.670;2023-04-25T12:20:09;6.17;;;2.80;;
15480;SDS011;7842;50.904;6.670;2023-04-25T12:22:37;4.78;;;2.55;;
15480;SDS011;7842;50.904;6.670;2023-04-25T12:25:05;5.75;;;2.42;;
15480;SDS011;7842;50.904;6.670;2023-04-25T12:27:32;6.30;;;2.80;;
15480;SDS011;7842;50.904;6.670;2023-04-25T12:29:59;4.45;;;2.50;;
15480;SDS011;7842;50.904;6.670;2023-04-25T12:32:25;6.10;;;2.90;;
15480;SDS011;7842;50.904;6.670;2023-04-25T12:34:51;5.32;;;3.05;;
15480;SDS011;7842;50.904;6.670;2023-04-25T12:37:17;5.40;;;2.53;;
15480;SDS011;7842;50.904;6.670;2023-04-25T12:39:43;6.28;;;2.70;;
15480;SDS011;7842;50.904;6.670;2023-04-25T12:42:09;5.60;;;2.83;;
15480;SDS011;7842;50.904;6.670;2023-04-25T12:44:39;5.82;;;2.58;;
15480;SDS011;7842;50.904;6.670;2023-04-25T12:47:06;3.80;;;2.10;;
15480;SDS011;7842;50.904;6.670;2023-04-25T12:49:35;6.75;;;2.60;;
15480;SDS011;7842;50.904;6.670;2023-04-25T12:52:03;4.60;;;2.40;;
15480;SDS011;7842;50.904;6.670;2023-04-25T12:54:29;6.35;;;2.53;;
15480;SDS011;7842;50.904;6.670;2023-04-25T12:56:56;4.32;;;2.63;;
15480;SDS011;7842;50.904;6.670;2023-04-25T12:59:22;5.18;;;2.47;;
15480;SDS011;7842;50.904;6.670;2023-04-25T13:01:48;7.10;;;2.70;;
15480;SDS011;7842;50.904;6.670;2023-04-25T13:04:16;6.72;;;2.60;;
15480;SDS011;7842;50.904;6.670;2023-04-25T13:06:42;5.85;;;2.50;;
15480;SDS011;7842;50.904;6.670;2023-04-25T13:09:08;5.80;;;2.35;;
15480;SDS011;7842;50.904;6.670;2023-04-25T13:11:34;4.78;;;2.33;;
15480;SDS011;7842;50.904;6.670;2023-04-25T13:14:00;7.27;;;2.60;;
15480;SDS011;7842;50.904;6.670;2023-04-25T13:16:26;5.30;;;2.20;;
15480;SDS011;7842;50.904;6.670;2023-04-25T13:18:52;5.27;;;2.70;;
15480;SDS011;7842;50.904;6.670;2023-04-25T13:21:18;4.60;;;2.15;;
15480;SDS011;7842;50.904;6.670;2023-04-25T13:23:43;4.40;;;2.30;;
15480;SDS011;7842;50.904;6.670;2023-04-25T13:26:11;6.00;;;2.25;;
15480;SDS011;7842;50.904;6.670;2023-04-25T13:28:40;5.28;;;2.38;;
15480;SDS011;7842;50.904;6.670;2023-04-25T13:31:06;5.45;;;2.10;;
15480;SDS011;7842;50.904;6.670;2023-04-25T13:33:32;6.70;;;2.20;;
15480;SDS011;7842;50.904;6.670;2023-04-25T13:36:01;5.60;;;2.33;;
15480;SDS011;7842;50.904;6.670;2023-04-25T13:38:27;5.10;;;2.60;;
15480;SDS011;7842;50.904;6.670;2023-04-25T13:40:52;4.87;;;2.40;;
15480;SDS011;7842;50.904;6.670;2023-04-25T13:43:21;7.05;;;2.70;;
15480;SDS011;7842;50.904;6.670;2023-04-25T13:45:47;6.03;;;2.42;;
15480;SDS011;7842;50.904;6.670;2023-04-25T13:48:13;4.35;;;2.03;;
15480;SDS011;7842;50.904;6.670;2023-04-25T13:50:39;3.40;;;2.10;;
15480;SDS011;7842;50.904;6.670;2023-04-25T13:53:08;4.15;;;2.30;;
15480;SDS011;7842;50.904;6.670;2023-04-25T13:55:34;5.17;;;2.20;;
15480;SDS011;7842;50.904;6.670;2023-04-25T13:58:04;4.38;;;2.20;;
15480;SDS011;7842;50.904;6.670;2023-04-25T14:00:33;3.33;;;2.00;;
15480;SDS011;7842;50.904;6.670;2023-04-25T14:02:59;4.22;;;2.05;;
15480;SDS011;7842;50.904;6.670;2023-04-25T14:05:25;4.45;;;2.28;;
15480;SDS011;7842;50.904;6.670;2023-04-25T14:07:51;3.90;;;2.67;;
15480;SDS011;7842;50.904;6.670;2023-04-25T14:10:17;5.70;;;2.70;;
15480;SDS011;7842;50.904;6.670;2023-04-25T14:12:45;4.70;;;2.30;;
15480;SDS011;7842;50.904;6.670;2023-04-25T14:15:11;3.28;;;2.38;;
15480;SDS011;7842;50.904;6.670;2023-04-25T14:17:37;4.83;;;2.50;;
15480;SDS011;7842;50.904;6.670;2023-04-25T14:20:03;4.20;;;2.20;;
15480;SDS011;7842;50.904;6.670;2023-04-25T14:22:30;6.57;;;2.30;;
15480;SDS011;7842;50.904;6.670;2023-04-25T14:24:56;5.67;;;2.43;;
15480;SDS011;7842;50.904;6.670;2023-04-25T14:27:23;6.47;;;2.47;;
15480;SDS011;7842;50.904;6.670;2023-04-25T14:29:48;4.05;;;2.15;;
15480;SDS011;7842;50.904;6.670;2023-04-25T14:32:14;6.30;;;2.80;;
15480;SDS011;7842;50.904;6.670;2023-04-25T14:34:40;6.85;;;4.25;;
15480;SDS011;7842;50.904;6.670;2023-04-25T14:37:06;8.88;;;5.30;;
15480;SDS011;7842;50.904;6.670;2023-04-25T14:39:31;7.70;;;4.07;;
15480;SDS011;7842;50.904;6.670;2023-04-25T14:41:57;6.55;;;3.88;;
15480;SDS011;7842;50.904;6.670;2023-04-25T14:44:23;10.00;;;5.30;;
15480;SDS011;7842;50.904;6.670;2023-04-25T14:46:49;5.28;;;2.92;;
15480;SDS011;7842;50.904;6.670;2023-04-25T14:49:16;3.95;;;2.00;;
15480;SDS011;7842;50.904;6.670;2023-04-25T14:51:42;4.90;;;2.90;;
15480;SDS011;7842;50.904;6.670;2023-04-25T14:54:08;3.85;;;2.08;;
15480;SDS011;7842;50.904;6.670;2023-04-25T14:56:35;6.43;;;2.00;;
15480;SDS011;7842;50.904;6.670;2023-04-25T14:59:01;5.22;;;2.10;;
15480;SDS011;7842;50.904;6.670;2023-04-25T15:01:27;4.05;;;2.15;;
15480;SDS011;7842;50.904;6.670;2023-04-25T15:03:53;5.18;;;2.25;;
15480;SDS011;7842;50.904;6.670;2023-04-25T15:06:19;4.53;;;2.13;;